Terminal Aerodrome Forecast
Issued by NWS Wilmington, OH

Current Version | Previous Version | Graphics & Text | Print | Product List | Glossary On
Versions: 1 2 3 4 5 6 7 8 9 10 11 12 13 14 15 16 17 18 19 20 21 22 23
000
FTUS41 KILN 010520
TAFDAY
TAF
KDAY 010520Z 0106/0206 18008KT 4SM -SHRA OVC004
     FM010800 18006KT 4SM BR OVC004
     FM011500 26006KT P6SM VCSH BKN022 BKN035
     FM012000 28005KT P6SM VCSH SCT025 BKN040
      TEMPO 0120/0124 P6SM -SHRA SCT025 BKN035
     FM020200 21005KT P6SM SCT050 BKN080=

USA.gov is the U.S. government's official web portal to all federal, state and local government web resources and services.